Time;durP1;ratioP1;P1;durP2;ratioP2;P2;SDS_P1;SDS_P2;PMS_P1;PMS_P2;Temp;Humidity;BMP_temperature;BMP_pressure;BME280_temperature;BME280_humidity;BME280_pressure;Samples;Min_cycle;Max_cycle;Signal;HPM_P1;HPM_P2
2022/12/07 11:29:55;;;;;;;34.03;13.15;;;;;;;-1.64;94.85;100271.30;1698233;83;21129;-51
2022/12/07 11:32:44;;;;;;;31.45;11.93;;;;;;;-1.56;94.78;100266.66;1747920;82;21139;-50
2022/12/07 11:35:42;;;;;;;28.00;11.55;;;;;;;-1.53;94.69;100267.75;1747829;81;21163;-51
2022/12/07 11:38:23;;;;;;;19.95;9.50;;;;;;;-1.50;94.67;100262.12;1698367;84;21160;-51
2022/12/07 11:41:12;;;;;;;21.25;9.90;;;;;;;-1.48;94.65;100260.17;1697777;84;21180;-50
2022/12/07 11:43:32;;;;;;;18.98;9.08;;;;;;;-1.43;94.64;100262.00;1696173;84;21122;-50
2022/12/07 11:46:09;;;;;;;13.08;7.92;;;;;;;-1.40;94.55;100259.91;1740792;82;21123;-50
2022/12/07 11:48:47;;;;;;;;;;;;;;;-1.38;94.50;100259.79;1750190;82;21162;-50
2022/12/07 11:51:17;;;;;;;29.00;9.93;;;;;;;-1.34;94.55;100256.72;1747496;81;20471;-50
2022/12/07 11:53:53;;;;;;;19.80;9.38;;;;;;;-1.30;94.52;100254.67;1747545;82;21206;-49
2022/12/07 11:56:27;;;;;;;25.35;9.85;;;;;;;-1.26;94.49;100258.81;1747068;82;21184;-50
2022/12/07 11:59:24;;;;;;;22.58;8.80;;;;;;;-1.24;94.45;100250.14;1747522;82;21184;-50
2022/12/07 12:02:01;;;;;;;24.63;9.47;;;;;;;-1.22;94.46;100250.87;1747479;82;21143;-51
2022/12/07 12:04:45;;;;;;;24.35;10.70;;;;;;;-1.20;94.35;100254.28;1747609;82;21183;-50
2022/12/07 12:07:18;;;;;;;24.87;10.18;;;;;;;-1.19;94.35;100255.14;1747539;82;21103;-50
2022/12/07 12:10:02;;;;;;;24.57;10.32;;;;;;;-1.17;94.37;100251.83;1743367;81;21131;-50
2022/12/07 12:12:45;;;;;;;21.52;9.38;;;;;;;-1.17;94.36;100256.72;1747727;82;21534;-50
2022/12/07 12:15:37;;;;;;;23.67;10.18;;;;;;;-1.14;94.35;100259.16;1743654;81;21159;-51
2022/12/07 12:18:30;;;;;;;25.20;10.05;;;;;;;-1.16;94.31;100255.73;1747674;81;21159;-50
2022/12/07 12:21:12;;;;;;;24.12;9.75;;;;;;;-1.15;94.32;100260.13;1747187;82;21151;-51
2022/12/07 12:23:51;;;;;;;22.65;10.18;;;;;;;-1.12;94.49;100255.84;1747563;81;21130;-52
2022/12/07 12:26:22;;;;;;;22.45;10.38;;;;;;;-1.10;94.41;100257.06;1747472;81;21120;-50
2022/12/07 12:29:08;;;;;;;28.00;10.72;;;;;;;-1.11;94.44;100258.90;1747460;82;21123;-50
2022/12/07 12:31:41;;;;;;;18.57;7.87;;;;;;;-1.10;94.50;100261.09;1746185;81;21143;-49
2022/12/07 12:34:33;;;;;;;23.12;11.22;;;;;;;-1.11;94.49;100262.93;1747148;82;21203;-53
2022/12/07 12:37:02;;;;;;;25.15;9.78;;;;;;;-1.10;94.55;100259.75;1708674;82;21117;-50
2022/12/07 12:39:31;;;;;;;23.52;10.10;;;;;;;-1.08;94.62;100265.86;1698125;84;21146;-50
2022/12/07 12:44:35;;;;;;;26.10;10.23;;;;;;;-1.08;94.67;100259.13;1698105;84;21138;-51
2022/12/07 12:47:24;;;;;;;25.60;10.23;;;;;;;-1.07;94.88;100254.97;1698018;84;21205;-49
2022/12/07 12:50:13;;;;;;;20.82;9.65;;;;;;;-1.07;94.95;100250.94;1671961;84;21246;-51
2022/12/07 13:03:56;;;;;;;21.30;9.80;;;;;;;-0.50;94.18;100257.81;1844356;77;29033;-50
2022/12/07 13:06:31;;;;;;;22.13;9.95;;;;;;;-0.59;94.00;100254.56;1845155;77;21530;-50
2022/12/07 13:09:00;;;;;;;23.40;11.83;;;;;;;-0.63;94.11;100254.95;1845198;78;21084;-50
2022/12/07 13:11:37;;;;;;;23.18;10.28;;;;;;;-0.70;94.12;100264.85;1844917;78;21186;-51
2022/12/07 13:14:55;;;;;;;17.20;7.43;;;;;;;-0.74;94.17;100261.20;1845347;77;21549;-51
2022/12/07 13:17:39;;;;;;;24.98;10.40;;;;;;;-0.80;94.27;100262.58;1845393;78;21099;-51
2022/12/07 13:20:09;;;;;;;23.35;10.58;;;;;;;-0.84;94.37;100261.61;1845089;78;21092;-52
2022/12/07 13:22:42;;;;;;;22.25;9.90;;;;;;;-0.89;94.48;100258.45;1843863;78;21146;-52
2022/12/07 13:25:40;;;;;;;20.68;11.38;;;;;;;-0.94;94.53;100258.84;1845164;78;21148;-51
2022/12/07 13:28:14;;;;;;;20.17;9.38;;;;;;;-0.98;94.67;100256.90;1845389;76;21081;-51
2022/12/07 13:31:16;;;;;;;24.32;10.50;;;;;;;-0.99;94.78;100256.53;1844988;78;21132;-51
2022/12/07 13:33:47;;;;;;;25.70;10.75;;;;;;;-1.01;94.81;100254.47;1844679;77;21184;-52
2022/12/07 13:36:24;;;;;;;25.40;10.87;;;;;;;-1.04;94.91;100258.75;1845019;77;21105;-49
2022/12/07 13:38:59;;;;;;;18.12;9.50;;;;;;;-0.97;95.12;100259.95;1805233;77;22121;-50
2022/12/07 13:41:29;;;;;;;21.50;11.68;;;;;;;-1.00;95.17;100263.38;1783803;80;21149;-52
2022/12/07 13:44:13;;;;;;;21.55;10.58;;;;;;;-1.01;95.17;100261.19;1775821;80;21138;-51
2022/12/07 13:47:17;;;;;;;19.10;10.48;;;;;;;-1.05;95.20;100250.32;1777741;80;21103;-50
2022/12/07 13:49:54;;;;;;;24.98;10.35;;;;;;;-1.08;95.30;100259.98;1757056;82;21163;-49
2022/12/07 13:52:30;;;;;;;18.30;9.03;;;;;;;-1.08;95.45;100256.45;1757388;82;21197;-52
2022/12/07 13:55:17;;;;;;;19.30;8.78;;;;;;;-1.10;95.52;100257.92;1755435;82;21149;-52
2022/12/07 13:57:50;;;;;;;22.35;9.90;;;;;;;-1.09;95.66;100258.77;1782236;80;21119;-51
2022/12/07 14:00:28;;;;;;;16.82;9.23;;;;;;;-1.11;95.74;100260.24;1788630;80;21145;-51
2022/12/07 14:03:06;;;;;;;22.65;10.08;;;;;;;-1.11;95.85;100259.39;1779195;80;21206;-52
2022/12/07 14:05:36;;;;;;;19.15;9.60;;;;;;;-1.12;95.94;100251.81;1784834;80;21138;-50
2022/12/07 14:08:12;;;;;;;20.92;9.68;;;;;;;-1.12;96.04;100252.30;1788448;80;21173;-50
2022/12/07 14:10:52;;;;;;;;;;;;;;;-1.10;96.11;100259.75;1789572;80;21106;-51
2022/12/07 14:13:36;;;;;;;20.92;9.23;;;;;;;-1.06;96.21;100251.80;1760690;80;20170;-52
2022/12/07 14:16:25;;;;;;;18.65;9.08;;;;;;;-1.06;96.25;100255.83;1787869;80;21177;-51
2022/12/07 14:18:57;;;;;;;18.42;9.48;;;;;;;-1.09;96.26;100260.97;1777557;80;21142;-49
2022/12/07 14:21:29;;;;;;;17.87;9.30;;;;;;;-1.11;96.33;100248.14;1788020;80;21631;-50
2022/12/07 14:24:17;;;;;;;20.90;8.80;;;;;;;-1.11;96.40;100240.57;1788143;80;21662;-49
2022/12/07 14:26:50;;;;;;;17.67;8.45;;;;;;;-1.08;96.48;100245.20;1788563;80;21150;-50
2022/12/07 14:29:32;;;;;;;22.90;9.65;;;;;;;-1.09;96.50;100242.15;1788347;80;21166;-52
2022/12/07 14:32:22;;;;;;;19.57;8.95;;;;;;;-1.09;96.56;100249.36;1788333;80;21145;-51
2022/12/07 14:35:00;;;;;;;18.42;9.15;;;;;;;-1.07;96.77;100247.40;1788526;80;21130;-51
2022/12/07 14:37:30;;;;;;;17.73;9.40;;;;;;;-1.05;96.80;100238.22;1780764;80;21111;-50
2022/12/07 14:40:00;;;;;;;25.05;9.63;;;;;;;-1.05;96.81;100228.81;1783006;80;21186;-50
2022/12/07 14:42:29;;;;;;;21.77;9.70;;;;;;;-1.06;96.78;100224.42;1782979;80;21501;-51
2022/12/07 14:44:59;;;;;;;18.27;9.45;;;;;;;-1.07;96.82;100209.27;1783108;80;21549;-51
2022/12/07 14:47:29;;;;;;;18.15;8.98;;;;;;;-1.07;96.87;100208.41;1783128;80;21165;-51
2022/12/07 14:50:00;;;;;;;19.25;8.83;;;;;;;-1.10;96.87;100200.12;1778160;80;21186;-50
2022/12/07 14:52:31;;;;;;;17.02;8.40;;;;;;;-1.13;96.86;100204.41;1782311;80;21114;-51
2022/12/07 14:55:04;;;;;;;18.73;9.45;;;;;;;-1.10;96.95;100203.30;1778326;80;21118;-51
2022/12/07 14:57:34;;;;;;;19.77;9.05;;;;;;;-1.09;97.05;100202.31;1782515;80;21142;-49
2022/12/07 15:00:05;;;;;;;18.27;9.48;;;;;;;-1.07;97.05;100207.92;1782387;80;21111;-50
2022/12/07 15:02:34;;;;;;;17.37;9.13;;;;;;;-1.07;96.99;100208.41;1782747;80;21098;-50
2022/12/07 15:05:04;;;;;;;45.60;18.67;;;;;;;-1.06;97.01;100215.02;1782468;80;21166;-52
2022/12/07 15:07:35;;;;;;;21.33;10.13;;;;;;;-1.09;97.03;100198.28;1781568;80;21107;-49
2022/12/07 15:10:07;;;;;;;21.50;10.20;;;;;;;-1.07;97.09;100205.73;1782445;80;21193;-53
2022/12/07 15:12:35;;;;;;;22.35;10.03;;;;;;;-1.07;97.08;100209.77;1782811;80;21246;-52
2022/12/07 15:15:06;;;;;;;20.70;9.40;;;;;;;-1.07;97.11;100214.65;1782657;80;21167;-50
2022/12/07 15:17:35;;;;;;;23.98;10.48;;;;;;;-1.08;97.11;100212.09;1782647;80;21162;-50
2022/12/07 15:20:08;;;;;;;18.60;10.28;;;;;;;-1.09;97.10;100215.27;1782592;80;21600;-50
2022/12/07 15:22:37;;;;;;;20.97;10.23;;;;;;;-1.10;97.11;100214.91;1753175;80;21138;-50
2022/12/07 15:25:09;;;;;;;18.05;9.50;;;;;;;-1.10;97.18;100222.97;1782433;80;21608;-51
2022/12/07 15:27:37;;;;;;;22.90;10.25;;;;;;;-1.12;97.18;100210.14;1782578;80;21193;-52
2022/12/07 15:30:07;;;;;;;22.87;10.38;;;;;;;-1.11;97.21;100219.92;1782511;80;21565;-52
2022/12/07 15:32:36;;;;;;;22.60;10.78;;;;;;;-1.03;97.59;100220.63;1782505;80;21170;-51
2022/12/07 15:35:07;;;;;;;21.68;9.33;;;;;;;-0.98;97.58;100219.74;1782322;80;21464;-51
2022/12/07 15:37:36;;;;;;;18.80;9.35;;;;;;;-0.98;97.48;100221.09;1782574;80;21118;-50
2022/12/07 15:40:08;;;;;;;19.42;9.60;;;;;;;-0.98;97.48;100216.56;1715679;83;21128;-50
2022/12/07 15:42:38;;;;;;;16.85;9.58;;;;;;;-0.98;97.40;100225.12;1716168;83;21156;-51
2022/12/07 15:45:08;;;;;;;16.12;8.38;;;;;;;-0.98;97.41;100230.50;1710800;83;21130;-48
2022/12/07 15:47:40;;;;;;;23.70;9.58;;;;;;;-0.99;97.44;100233.68;1702795;83;21180;-51
2022/12/07 15:50:14;;;;;;;22.02;9.83;;;;;;;-0.99;97.42;100236.86;1712455;83;21620;-51
2022/12/07 15:52:42;;;;;;;20.40;9.00;;;;;;;-0.98;97.53;100242.60;1716029;83;21603;-51
2022/12/07 15:55:11;;;;;;;19.82;9.75;;;;;;;-0.97;97.57;100242.47;1715755;83;21231;-50
2022/12/07 15:57:43;;;;;;;17.45;8.38;;;;;;;-0.96;97.57;100243.33;1732777;80;21119;-51
2022/12/07 16:00:15;;;;;;;18.75;9.30;;;;;;;-0.98;97.59;100231.36;1782388;80;21546;-50
2022/12/07 16:02:44;;;;;;;16.50;8.38;;;;;;;-0.97;97.67;100239.78;1782555;80;21170;-50
2022/12/07 16:05:14;;;;;;;20.75;9.15;;;;;;;-0.94;97.73;100233.78;1782465;80;21146;-50
2022/12/07 16:07:46;;;;;;;20.65;9.38;;;;;;;-0.93;97.77;100240.37;1782504;80;21131;-49
2022/12/07 16:10:15;;;;;;;24.17;10.10;;;;;;;-0.93;97.78;100243.07;1782437;80;21114;-51
2022/12/07 16:12:44;;;;;;;24.80;10.13;;;;;;;-0.90;97.82;100244.65;1782420;80;21127;-50
2022/12/07 16:15:14;;;;;;;24.15;10.63;;;;;;;-0.90;97.83;100240.61;1782443;80;21142;-49
2022/12/07 20:09:44;;;;;;;12.70;7.53;;;;;;;-0.48;100.00;100202.52;1837879;77;28060;-49
2022/12/07 20:15:06;;;;;;;11.08;7.03;;;;;;;-0.46;100.00;100204.58;1794729;79;21078;-48
2022/12/07 20:17:37;;;;;;;13.43;7.72;;;;;;;-0.45;100.00;100202.25;1794914;79;21234;-50
2022/12/07 20:20:10;;;;;;;12.13;7.03;;;;;;;-0.45;100.00;100203.11;1795092;79;21177;-49
2022/12/07 20:22:41;;;;;;;11.95;6.80;;;;;;;-0.45;100.00;100209.84;1794981;80;21106;-49
2022/12/07 20:25:13;;;;;;;13.68;7.03;;;;;;;-0.42;100.00;100208.72;1722144;83;21125;-48
2022/12/07 20:27:43;;;;;;;11.88;7.00;;;;;;;-0.42;100.00;100213.61;1699120;83;21216;-48
2022/12/07 20:30:15;;;;;;;11.08;6.47;;;;;;;-0.41;100.00;100215.31;1758202;81;21117;-47
2022/12/07 20:32:46;;;;;;;11.88;6.80;;;;;;;-0.39;100.00;100216.53;1758046;81;21700;-49
2022/12/07 20:35:17;;;;;;;13.45;6.78;;;;;;;-0.39;100.00;100216.03;1758243;81;21190;-51
2022/12/07 20:37:48;;;;;;;11.68;6.40;;;;;;;-0.38;100.00;100208.32;1757934;81;21145;-51
2022/12/07 20:40:19;;;;;;;12.90;6.90;;;;;;;-0.36;100.00;100202.31;1757946;81;22075;-49
2022/12/07 20:42:49;;;;;;;12.80;7.50;;;;;;;-0.34;100.00;100205.72;1780111;78;21108;-48
2022/12/07 20:45:20;;;;;;;13.55;7.65;;;;;;;-0.34;100.00;100220.53;1833973;78;21151;-48
2022/12/07 20:47:50;;;;;;;13.43;7.25;;;;;;;-0.33;100.00;100205.23;1833747;78;21120;-49
2022/12/07 20:50:21;;;;;;;11.83;6.85;;;;;;;-0.33;100.00;100212.81;1833746;78;21167;-49
2022/12/07 20:52:54;;;;;;;13.55;6.95;;;;;;;-0.30;100.00;100217.56;1833713;78;21699;-47
2022/12/07 20:55:27;;;;;;;11.38;6.37;;;;;;;-0.30;100.00;100211.69;1833263;78;21120;-50
2022/12/07 20:57:57;;;;;;;13.00;6.95;;;;;;;-0.28;100.00;100213.76;1833970;78;21146;-50
2022/12/07 21:00:27;;;;;;;11.93;6.90;;;;;;;-0.28;100.00;100212.91;1833952;77;21088;-51
2022/12/07 21:02:57;;;;;;;12.35;6.70;;;;;;;-0.28;100.00;100222.33;1834036;78;21144;-48
2022/12/07 21:05:27;;;;;;;12.20;6.15;;;;;;;-0.28;100.00;100212.41;1833954;78;21585;-49
2022/12/07 21:07:57;;;;;;;12.35;6.80;;;;;;;-0.26;100.00;100223.90;1833370;77;21588;-47
2022/12/07 21:10:29;;;;;;;11.83;6.40;;;;;;;-0.25;100.00;100215.33;1831518;77;21132;-48
2022/12/07 21:12:59;;;;;;;12.58;6.83;;;;;;;-0.26;100.00;100213.13;1831319;77;21096;-48
2022/12/07 21:15:31;;;;;;;13.13;7.12;;;;;;;-0.25;100.00;100223.41;1831120;78;21116;-49
2022/12/07 21:18:02;;;;;;;14.58;6.80;;;;;;;-0.24;100.00;100230.00;1799155;78;21179;-48
2022/12/07 21:20:34;;;;;;;12.40;6.70;;;;;;;-0.23;100.00;100227.67;1831149;78;21179;-48
2022/12/07 21:23:06;;;;;;;13.78;7.35;;;;;;;-0.22;100.00;100223.14;1831360;78;21577;-48
2022/12/07 21:25:36;;;;;;;12.23;7.33;;;;;;;-0.22;100.00;100221.80;1831192;78;21128;-48
2022/12/07 21:28:06;;;;;;;15.80;7.83;;;;;;;-0.22;100.00;100224.48;1831136;78;21139;-49
2022/12/07 21:30:38;;;;;;;13.62;7.15;;;;;;;-0.22;100.00;100225.83;1831241;78;21155;-48
2022/12/07 21:33:10;;;;;;;14.40;7.28;;;;;;;-0.21;100.00;100222.16;1826429;77;21159;-48
2022/12/07 21:35:40;;;;;;;15.55;7.40;;;;;;;-0.21;100.00;100220.81;1831188;78;21112;-48
2022/12/07 21:38:11;;;;;;;13.68;7.28;;;;;;;-0.21;100.00;100216.28;1831125;78;21563;-49
2022/12/07 21:40:40;;;;;;;15.50;7.55;;;;;;;-0.20;100.00;100217.98;1831276;78;21124;-48
2022/12/07 21:43:10;;;;;;;14.10;7.60;;;;;;;-0.19;100.00;100216.14;1804253;78;21638;-49
2022/12/07 21:45:40;;;;;;;15.45;7.60;;;;;;;-0.18;100.00;100219.20;1831200;78;21613;-49
2022/12/07 21:48:10;;;;;;;13.65;6.87;;;;;;;-0.19;100.00;100222.38;1831159;78;21561;-49
2022/12/07 21:50:40;;;;;;;14.65;7.60;;;;;;;-0.18;100.00;100220.55;1831323;78;21112;-49
2022/12/07 21:53:14;;;;;;;12.90;7.35;;;;;;;-0.19;100.00;100218.84;1831196;78;21499;-48
2022/12/07 21:55:44;;;;;;;13.95;7.42;;;;;;;-0.19;100.00;100218.84;1831134;77;21599;-48
2022/12/07 21:58:15;;;;;;;16.93;8.18;;;;;;;-0.17;100.00;100222.25;1831333;78;21263;-50
2022/12/07 22:00:46;;;;;;;15.72;7.97;;;;;;;-0.19;100.00;100218.34;1831488;78;21143;-49
2022/12/07 22:03:15;;;;;;;16.17;7.70;;;;;;;-0.18;100.00;100225.92;1831283;78;21159;-48
2022/12/07 22:05:45;;;;;;;15.05;7.65;;;;;;;-0.16;100.00;100229.34;1803618;77;21188;-48
2022/12/07 22:08:15;;;;;;;17.65;8.00;;;;;;;-0.18;100.00;100224.58;1831479;78;21127;-49
2022/12/07 22:10:45;;;;;;;15.25;7.97;;;;;;;-0.18;100.00;100234.00;1833424;77;21112;-50
2022/12/07 22:13:15;;;;;;;16.85;8.10;;;;;;;-0.17;100.00;100233.87;1833253;78;21156;-48
2022/12/07 22:15:47;;;;;;;16.17;8.63;;;;;;;-0.15;100.00;100241.81;1833327;78;21108;-49
2022/12/07 22:18:17;;;;;;;17.55;7.58;;;;;;;-0.16;100.00;100229.34;1833373;78;21140;-49
2022/12/07 22:20:48;;;;;;;17.60;8.20;;;;;;;-0.14;100.00;100236.79;1833156;78;21547;-50
2022/12/07 22:23:20;;;;;;;18.12;8.83;;;;;;;-0.13;100.00;100238.49;1832255;78;21191;-50
2022/12/07 22:25:50;;;;;;;17.25;8.18;;;;;;;-0.12;100.00;100232.12;1833340;78;21112;-51
2022/12/07 22:28:20;;;;;;;19.30;8.60;;;;;;;-0.10;100.00;100231.50;1833188;78;21591;-51
2022/12/07 22:30:50;;;;;;;20.68;9.00;;;;;;;-0.08;100.00;100230.87;1833105;78;21144;-51
2022/12/07 22:33:21;;;;;;;17.42;8.58;;;;;;;-0.07;100.00;100225.84;1833186;78;21156;-50
2022/12/07 22:35:54;;;;;;;17.37;8.78;;;;;;;-0.08;100.00;100225.48;1833083;78;21132;-52
2022/12/07 22:38:23;;;;;;;16.15;8.13;;;;;;;-0.08;100.00;100225.48;1833559;78;21171;-51
2022/12/07 22:40:54;;;;;;;15.80;8.10;;;;;;;-0.06;100.00;100226.20;1833279;77;21151;-51
2022/12/07 22:43:25;;;;;;;17.00;7.65;;;;;;;-0.05;100.00;100234.14;1833151;78;21120;-50
2022/12/07 22:45:58;;;;;;;15.75;7.95;;;;;;;-0.05;100.00;100234.64;1833201;78;21116;-51
2022/12/07 22:48:27;;;;;;;16.27;7.97;;;;;;;-0.04;100.00;100229.12;1833173;78;21195;-51
